• Join FlightAware (Why Join?)
  • Login
  • US Flag 
03:19PM EDT


 

Airport Tracker/Info


-or-


 

Live Flight TrackerFlight Track Log ✈ XSR387 ✈ 08-May-2013 ✈ KRVS - KAAO

Flight Track Log - Related Links

Times and Time Zones

All times are in EDT time to prevent confusion due to time zone crossing. See the XSR387 flight status page for this flight to view local times or setup timezone preferences in your user account.

Time Position Orientation Groundspeed Altitude Reporting Facility
EDT Latitude Longitude Course Direction KTS MPH feet Rate Location/Type
09:12PM 36.0258 -95.9914 182° South 124 143 1,200  Level Kansas City Center
09:13PM 36.0144 -95.9919 182° South 130 150 1,700 1,620 Climbing Kansas City Center
09:13PM 35.9917 -96.0086 211° Southwest 141 162 2,900 1,620 Climbing Kansas City Center
09:14PM 35.9933 -96.0286 276° West 157 181 3,400 1,380 Climbing Kansas City Center
09:14PM 36.0158 -96.0494 323° Northwest 191 220 4,300 1,560 Climbing Kansas City Center
09:15PM 36.0375 -96.0550 348° North 180 207 5,000 1,440 Climbing Kansas City Center
09:16PM 36.0844 -96.0725 343° North 177 204 6,500 1,260 Climbing Kansas City Center
09:17PM 36.1311 -96.0917 342° North 175 201 7,700 1,260 Climbing Kansas City Center
09:18PM 36.1775 -96.1153 338° Northwest 178 205 9,200 1,080 Climbing Kansas City Center
09:19PM 36.2239 -96.1394 337° Northwest 179 206 9,900 300 Climbing Kansas City Center
09:20PM 36.2808 -96.1675 338° Northwest 203 234 9,900  Level Kansas City Center
09:21PM 36.3442 -96.1950 341° North 229 264 10,000  Climbing Kansas City Center
09:22PM 36.4075 -96.2217 341° North 237 273 10,000  Level Kansas City Center
09:23PM 36.4547 -96.2736 319° Northwest 234 269 10,000  Level Kansas City Center
09:24PM 36.4836 -96.3417 298° West 226 260 10,000  Level Kansas City Center
09:25PM 36.5119 -96.4089 298° West 221 254 10,000  Level Kansas City Center
09:26PM 36.5403 -96.4919 293° West 219 252 10,000  Level Kansas City Center
09:27PM 36.5617 -96.5631 291° West 219 252 10,000  Level Kansas City Center
09:28PM 36.5817 -96.6372 289° West 223 257 10,000  Level Kansas City Center
09:29PM 36.6042 -96.7114 291° West 227 261 10,000 -60 Level Kansas City Center
09:30PM 36.6261 -96.7825 291° West 223 257 9,900 -540 Descending Kansas City Center
09:31PM 36.6489 -96.8508 293° West 216 249 8,900 -960 Descending Kansas City Center
09:32PM 36.6722 -96.9178 294° West 213 245 8,000 -480 Descending Kansas City Center
09:33PM 36.6931 -96.9792 293° West 199 229 8,000  Level Kansas City Center
09:34PM 36.7111 -97.0386 291° West 187 215 8,000  Level Kansas City Center
09:35PM 36.7353 -97.1022 295° West 195 224 8,000  Level Kansas City Center
09:36PM 36.7847 -97.1347 332° Northwest 202 232 8,000  Level Kansas City Center
09:37PM 36.8311 -97.1578 338° Northwest 186 214 8,100  Climbing Kansas City Center
09:38PM 36.8886 -97.1792 343° North 194 223 8,000 -60 Descending Kansas City Center
09:39PM 36.9322 -97.1958 343° North 198 228 8,000  Level Kansas City Center
09:39PM 36.9394 -97.1994 338° Northwest 193 222 8,000  Level Kansas City Center
09:40PM 36.9767 -97.1994 360° North 194 223 8,000  Level Kansas City Center
09:40PM 36.9944 -97.1956 10° North 195 224 8,000  Level Kansas City Center
09:41PM 37.0306 -97.1908 North 191 220 8,000  Level Kansas City Center
09:41PM 37.0464 -97.1881 North 190 219 8,000 60 Level Kansas City Center
09:42PM 37.0822 -97.1828 North 189 217 8,100  Climbing Kansas City Center
09:43PM 37.1003 -97.1803 North 193 222 8,000  Descending Kansas City Center
09:43PM 37.1364 -97.1769 North 190 219 8,100  Climbing Kansas City Center
09:44PM 37.1531 -97.1717 14° North 192 221 8,000  Descending Kansas City Center
09:44PM 37.1903 -97.1686 North 194 223 8,100  Climbing Kansas City Center
09:45PM 37.2175 -97.1614 12° North 193 222 8,000  Descending Kansas City Center
09:45PM 37.2442 -97.1600 North 202 232 8,100 -120 Climbing Kansas City Center
09:46PM 37.2747 -97.1544 North 201 231 7,900 -540 Descending Kansas City Center
09:46PM 37.3044 -97.1533 North 212 244 7,600 -840 Descending Kansas City Center
09:47PM 37.3358 -97.1478 North 213 245 7,100 -840 Descending Kansas City Center
09:47PM 37.3667 -97.1461 North 230 265 6,800 -840 Descending Kansas City Center
09:48PM 37.3986 -97.1442 North 221 254 6,300 -840 Descending Kansas City Center
09:48PM 37.4306 -97.1544 346° North 231 266 6,000 -840 Descending Kansas City Center
09:49PM 37.4619 -97.1572 356° North 228 262 5,500 -840 Descending Kansas City Center
09:49PM 37.4992 -97.1672 348° North 230 265 5,200 -420 Descending Kansas City Center
09:50PM 37.5253 -97.1708 354° North 231 266 5,100 -120 Descending Kansas City Center
09:50PM 37.5592 -97.1789 349° North 218 251 5,100  Level Kansas City Center
09:51PM 37.5847 -97.1806 357° North 225 259 5,100 -600 Level Kansas City Center
09:51PM 37.6167 -97.1858 353° North 203 234 4,500 -1,140 Descending Kansas City Center
09:52PM 37.6417 -97.1861 359° North 214 246 4,000 -1,020 Descending Kansas City Center
09:52PM 37.6761 -97.1922 352° North 218 251 3,500 -840 Descending Kansas City Center
09:53PM 37.7006 -97.1906 North 212 244 3,200 -420 Descending Kansas City Center
09:53PM 37.7347 -97.1908 360° North 208 239 3,100 -540 Descending Kansas City Center
09:54PM 37.7622 -97.1853 North 195 224 2,700 -600 Descending Kansas City Center
09:54PM 37.7789 -97.1892 350° North 145 167 2,500 -540 Descending Kansas City Center
09:55PM 37.7775 -97.2097 265° West 149 171 2,200 -600 Descending Kansas City Center
09:55PM 37.7669 -97.2175 210° Southwest 101 116 1,900 -540 Descending Kansas City Center
09:56PM 37.7525 -97.2225 195° South 128 147 1,700 -360 Descending Kansas City Center